Time;durP1;ratioP1;P1;durP2;ratioP2;P2;SDS_P1;SDS_P2;PMS_P1;PMS_P2;Temp;Humidity;BMP_temperature;BMP_pressure;BME280_temperature;BME280_humidity;BME280_pressure;Samples;Min_cycle;Max_cycle;Signal;HPM_P1;HPM_P2
2022/05/08 00:00:56;;;;;;;7.40;5.78;;;17.30;87.20;;;;;;5042814;28;20037;-60
2022/05/08 00:03:21;;;;;;;8.75;6.25;;;17.40;87.30;;;;;;5041595;28;20029;-59
2022/05/08 00:05:47;;;;;;;10.55;6.05;;;17.30;87.30;;;;;;5042754;28;20045;-61
2022/05/08 00:08:12;;;;;;;8.70;6.13;;;17.30;87.40;;;;;;5044169;28;20164;-58
2022/05/08 00:10:40;;;;;;;7.63;6.63;;;17.30;87.40;;;;;;5041050;28;20146;-59
2022/05/08 00:13:05;;;;;;;6.07;5.18;;;17.30;87.40;;;;;;5039541;28;20151;-61
2022/05/08 00:15:31;;;;;;;6.78;6.15;;;17.30;87.30;;;;;;5043667;28;20049;-62
2022/05/08 00:17:56;;;;;;;10.20;6.30;;;17.30;87.40;;;;;;5039817;28;20026;-62
2022/05/08 00:20:22;;;;;;;6.75;6.15;;;17.30;87.40;;;;;;5039688;28;20052;-61
2022/05/08 00:22:47;;;;;;;8.32;6.25;;;17.30;87.40;;;;;;5040190;28;20048;-58
2022/05/08 00:25:13;;;;;;;6.60;5.95;;;17.30;87.50;;;;;;5038036;28;20056;-59
2022/05/08 00:27:38;;;;;;;6.88;6.03;;;17.20;87.50;;;;;;5040400;28;20083;-61
2022/05/08 00:30:04;;;;;;;10.48;5.72;;;17.20;87.70;;;;;;5037868;28;20344;-61
2022/05/08 00:32:30;;;;;;;7.60;6.68;;;17.20;87.80;;;;;;5039242;28;20060;-58
2022/05/08 00:34:56;;;;;;;7.97;6.35;;;17.20;87.80;;;;;;5042547;28;20033;-59
2022/05/08 00:37:21;;;;;;;7.15;6.13;;;17.20;88.50;;;;;;5039975;28;20040;-58
2022/05/08 00:39:47;;;;;;;7.95;6.45;;;17.20;87.80;;;;;;5038469;28;20516;-59
2022/05/08 00:42:12;;;;;;;6.57;5.97;;;17.20;87.80;;;;;;5042475;28;20034;-61
2022/05/08 00:44:38;;;;;;;7.55;6.10;;;17.10;87.70;;;;;;5043628;28;20045;-60
2022/05/08 00:47:04;;;;;;;7.15;6.55;;;17.10;87.70;;;;;;5039712;28;20029;-60
2022/05/08 00:49:29;;;;;;;6.07;5.57;;;17.10;87.70;;;;;;5041601;28;20060;-59
2022/05/08 00:51:55;;;;;;;8.93;6.40;;;17.10;87.70;;;;;;5040667;28;20053;-61
2022/05/08 00:54:20;;;;;;;6.90;5.97;;;17.10;87.80;;;;;;5024385;28;20102;-61
2022/05/08 00:56:46;;;;;;;6.63;6.03;;;17.10;87.70;;;;;;5043339;28;20530;-58
2022/05/08 00:59:11;;;;;;;8.85;6.50;;;17.10;87.80;;;;;;5040382;28;20037;-61
2022/05/08 01:01:37;;;;;;;7.50;6.50;;;17.10;87.90;;;;;;5022821;28;20295;-58
2022/05/08 01:04:03;;;;;;;7.45;6.75;;;17.10;88.00;;;;;;5039238;28;20033;-59
2022/05/08 01:06:29;;;;;;;11.10;7.40;;;17.00;88.20;;;;;;5039645;28;20136;-59
2022/05/08 01:08:55;;;;;;;7.22;6.50;;;17.00;88.20;;;;;;5040136;28;20070;-61
2022/05/08 01:11:20;;;;;;;11.10;7.18;;;17.00;88.10;;;;;;5042899;28;20431;-61
2022/05/08 01:13:47;;;;;;;8.30;6.50;;;17.00;88.20;;;;;;5042417;28;20481;-61
2022/05/08 01:16:20;;;;;;;7.22;6.57;;;17.00;88.20;;;;;;5041045;28;20083;-61
2022/05/08 01:18:46;;;;;;;7.43;6.40;;;17.00;88.20;;;;;;5022590;28;20064;-60
2022/05/08 01:21:17;;;;;;;8.30;6.50;;;17.00;88.10;;;;;;5024350;28;20033;-59
2022/05/08 01:23:43;;;;;;;7.47;6.70;;;17.00;88.10;;;;;;5043052;28;20029;-61
2022/05/08 01:26:08;;;;;;;9.30;6.78;;;17.00;88.00;;;;;;5039898;28;20510;-60
2022/05/08 01:28:34;;;;;;;7.70;6.95;;;17.00;88.10;;;;;;5041734;28;20074;-60
2022/05/08 01:30:59;;;;;;;7.03;6.40;;;17.00;88.10;;;;;;5036728;28;20611;-59
2022/05/08 01:33:25;;;;;;;7.82;7.03;;;17.00;88.10;;;;;;5040888;28;20572;-59
2022/05/08 01:35:51;;;;;;;7.47;6.47;;;17.00;88.10;;;;;;5021715;28;20043;-60
2022/05/08 01:38:21;;;;;;;7.63;6.80;;;16.90;88.10;;;;;;5042439;28;20025;-59
2022/05/08 01:40:46;;;;;;;7.28;6.50;;;16.90;88.20;;;;;;5038434;28;20029;-58
2022/05/08 01:43:12;;;;;;;8.70;6.78;;;16.90;88.20;;;;;;5039578;28;20029;-60
2022/05/08 01:45:38;;;;;;;6.50;5.90;;;16.90;88.20;;;;;;5005098;28;20120;-59
2022/05/08 01:48:22;;;;;;;7.63;6.78;;;16.90;88.20;;;;;;5040652;28;20033;-60
2022/05/08 01:50:58;;;;;;;7.22;6.57;;;16.90;88.20;;;;;;5025249;28;20027;-60
2022/05/08 01:53:25;;;;;;;7.72;6.32;;;16.90;88.10;;;;;;5040342;28;20222;-60
2022/05/08 01:55:54;;;;;;;8.63;7.80;;;16.80;88.10;;;;;;5038633;28;20025;-60
2022/05/08 01:58:20;;;;;;;7.85;6.97;;;16.90;88.20;;;;;;5038278;28;20029;-60
2022/05/08 02:00:46;;;;;;;7.65;6.95;;;16.80;88.20;;;;;;5037458;28;20020;-60
2022/05/08 02:03:12;;;;;;;7.55;6.90;;;16.80;88.30;;;;;;5038907;28;20062;-60
2022/05/08 02:05:41;;;;;;;10.65;6.65;;;16.80;88.40;;;;;;5039921;28;20029;-59
2022/05/08 02:08:07;;;;;;;7.55;6.82;;;16.80;88.40;;;;;;5040522;28;20075;-60
2022/05/08 02:10:32;;;;;;;7.40;6.70;;;16.80;88.40;;;;;;5037326;28;20057;-61
2022/05/08 02:12:58;;;;;;;7.00;6.32;;;16.70;88.40;;;;;;5040754;28;20098;-59
2022/05/08 02:15:29;;;;;;;8.30;6.85;;;16.70;88.40;;;;;;5024035;28;20103;-59
2022/05/08 02:17:54;;;;;;;7.47;6.78;;;16.70;88.40;;;;;;5039438;28;20512;-62
2022/05/08 02:20:20;;;;;;;7.20;6.60;;;16.70;88.40;;;;;;5041116;28;20056;-59
2022/05/08 02:22:45;;;;;;;9.00;6.43;;;16.70;88.50;;;;;;5040259;28;20405;-60
2022/05/08 02:25:11;;;;;;;7.68;6.85;;;16.70;88.40;;;;;;5040962;28;20033;-59
2022/05/08 02:27:38;;;;;;;6.93;6.25;;;16.70;88.50;;;;;;5040620;28;20051;-60
2022/05/08 02:30:07;;;;;;;7.03;5.75;;;16.70;88.50;;;;;;5040649;28;20326;-61
2022/05/08 02:32:33;;;;;;;8.15;6.65;;;16.70;88.50;;;;;;5036655;28;20044;-60
2022/05/08 02:34:58;;;;;;;7.97;6.68;;;16.70;88.60;;;;;;5039098;28;20033;-60
2022/05/08 02:37:24;;;;;;;7.68;6.50;;;16.70;88.60;;;;;;5039644;28;20044;-60
2022/05/08 02:39:49;;;;;;;7.32;6.63;;;16.60;88.50;;;;;;5024286;28;20071;-60
2022/05/08 02:42:15;;;;;;;6.50;5.97;;;16.70;88.50;;;;;;5037810;28;20033;-60
2022/05/08 02:44:41;;;;;;;7.63;6.90;;;16.70;88.70;;;;;;5041044;28;20017;-60
2022/05/08 02:47:06;;;;;;;6.72;6.07;;;16.60;88.60;;;;;;5038749;28;20578;-61
2022/05/08 02:49:32;;;;;;;7.88;7.07;;;16.60;88.60;;;;;;5023344;28;20128;-60
2022/05/08 02:51:57;;;;;;;10.20;6.63;;;16.60;88.60;;;;;;5039817;28;20530;-61
2022/05/08 02:54:23;;;;;;;7.05;6.35;;;16.60;88.70;;;;;;5042862;28;20043;-60
2022/05/08 02:59:32;;;;;;;6.85;6.25;;;16.60;88.70;;;;;;5040391;28;20059;-60
2022/05/08 03:01:58;;;;;;;7.00;6.30;;;16.60;88.70;;;;;;5036395;28;20037;-60
2022/05/08 03:04:23;;;;;;;7.15;6.50;;;16.60;88.70;;;;;;5041887;28;20056;-61
2022/05/08 03:06:49;;;;;;;7.22;6.63;;;16.60;88.70;;;;;;5040138;28;20040;-60
2022/05/08 03:09:14;;;;;;;7.28;6.53;;;16.50;88.70;;;;;;5043121;28;20028;-58
2022/05/08 03:11:40;;;;;;;7.35;6.65;;;16.50;88.80;;;;;;5041576;28;20041;-59
2022/05/08 03:14:05;;;;;;;8.77;6.60;;;16.50;88.80;;;;;;5043059;28;20044;-59
2022/05/08 03:16:31;;;;;;;6.88;6.18;;;16.50;88.80;;;;;;5026685;28;20037;-60
2022/05/08 03:18:56;;;;;;;7.07;6.38;;;16.50;88.80;;;;;;5045684;28;20031;-60
2022/05/08 03:21:22;;;;;;;7.32;6.63;;;16.50;88.90;;;;;;5044343;28;20045;-61
2022/05/08 03:23:48;;;;;;;7.22;6.53;;;16.50;88.90;;;;;;5045824;28;20095;-60
2022/05/08 03:26:14;;;;;;;7.18;6.40;;;16.50;88.90;;;;;;5024501;28;20515;-60
2022/05/08 03:28:40;;;;;;;7.10;6.35;;;16.50;88.80;;;;;;5043355;28;20041;-61
2022/05/08 03:31:06;;;;;;;6.47;5.88;;;16.50;88.90;;;;;;5043064;28;20354;-60
2022/05/08 03:33:32;;;;;;;7.53;6.78;;;16.50;88.80;;;;;;5028338;28;20118;-60
2022/05/08 03:35:57;;;;;;;6.85;6.15;;;16.50;88.80;;;;;;5040792;28;20505;-60
2022/05/08 03:38:23;;;;;;;7.50;6.80;;;16.40;88.80;;;;;;5044773;28;20040;-61
2022/05/08 03:40:48;;;;;;;7.57;6.35;;;16.40;88.80;;;;;;5042621;28;20041;-62
2022/05/08 03:43:14;;;;;;;6.88;6.18;;;16.40;88.80;;;;;;5043424;28;20044;-61
2022/05/08 03:45:39;;;;;;;7.47;6.78;;;16.40;89.00;;;;;;5041822;28;20129;-61
2022/05/08 03:48:05;;;;;;;6.93;6.22;;;16.40;88.90;;;;;;5045850;28;20386;-59
2022/05/08 03:50:31;;;;;;;6.47;5.88;;;16.40;88.90;;;;;;5042746;28;20068;-62
2022/05/08 03:52:57;;;;;;;7.30;6.60;;;16.40;89.10;;;;;;5042567;28;20064;-60
2022/05/08 03:55:23;;;;;;;7.00;6.40;;;16.40;89.10;;;;;;5023641;28;20426;-59
2022/05/08 03:57:48;;;;;;;6.35;5.75;;;16.40;89.10;;;;;;5043351;28;20127;-59
2022/05/08 04:00:14;;;;;;;7.78;6.25;;;16.40;89.10;;;;;;5042618;28;20575;-62
2022/05/08 04:02:40;;;;;;;7.05;6.00;;;16.30;89.10;;;;;;5042605;28;20118;-58
2022/05/08 04:05:06;;;;;;;7.03;6.30;;;16.30;89.00;;;;;;5041202;28;20053;-61
2022/05/08 04:07:32;;;;;;;7.70;5.82;;;16.30;89.70;;;;;;5043009;28;20323;-61
2022/05/08 04:09:58;;;;;;;6.25;5.65;;;16.30;89.00;;;;;;5042417;28;20644;-60
2022/05/08 04:12:23;;;;;;;6.10;5.50;;;16.30;89.00;;;;;;5043711;28;20036;-58
2022/05/08 04:14:49;;;;;;;6.35;5.72;;;16.30;89.00;;;;;;5025734;28;20029;-60
2022/05/08 04:17:15;;;;;;;7.93;6.30;;;16.30;89.00;;;;;;5043712;28;20081;-58
2022/05/08 04:19:42;;;;;;;6.82;6.13;;;16.30;89.10;;;;;;5039708;28;20103;-59
2022/05/08 04:24:51;;;;;;;6.20;5.70;;;16.20;89.10;;;;;;5041634;28;20527;-59
2022/05/08 04:27:17;;;;;;;6.53;5.93;;;16.20;89.10;;;;;;5043495;28;20116;-61
2022/05/08 04:29:42;;;;;;;6.43;5.82;;;16.40;89.30;;;;;;5040258;28;20036;-59
2022/05/08 04:32:08;;;;;;;6.15;5.65;;;16.20;89.10;;;;;;5041161;28;20041;-59
2022/05/08 04:34:33;;;;;;;6.78;6.07;;;16.20;89.20;;;;;;5043294;28;20053;-59
2022/05/08 04:36:59;;;;;;;6.43;5.72;;;16.20;89.20;;;;;;5041708;28;20056;-60
2022/05/08 04:39:24;;;;;;;6.57;5.97;;;16.20;89.10;;;;;;5043397;28;20112;-61
2022/05/08 04:41:50;;;;;;;6.32;5.82;;;16.20;89.10;;;;;;5042769;28;20060;-59
2022/05/08 04:44:15;;;;;;;6.68;6.07;;;16.20;89.20;;;;;;5041682;28;20033;-58
2022/05/08 04:46:41;;;;;;;6.28;5.68;;;16.20;89.20;;;;;;5039020;28;20504;-58
2022/05/08 04:49:06;;;;;;;6.43;5.75;;;16.20;89.20;;;;;;5041172;28;20041;-61
2022/05/08 04:51:32;;;;;;;7.20;5.95;;;16.20;89.10;;;;;;5040230;28;20106;-61
2022/05/08 04:53:57;;;;;;;6.40;5.80;;;16.20;89.10;;;;;;5041380;28;20029;-59
2022/05/08 04:56:23;;;;;;;6.53;5.93;;;16.10;89.10;;;;;;5041247;28;20030;-60
2022/05/08 04:58:49;;;;;;;6.38;5.78;;;16.10;89.10;;;;;;5022037;28;20057;-61
2022/05/08 05:01:14;;;;;;;6.97;5.57;;;16.20;89.10;;;;;;5040679;28;20036;-58
2022/05/08 05:03:41;;;;;;;5.75;5.25;;;16.20;89.10;;;;;;5040336;28;20038;-60
2022/05/08 05:06:06;;;;;;;5.72;5.22;;;16.10;89.10;;;;;;5044504;28;20029;-59
2022/05/08 05:08:32;;;;;;;6.40;5.90;;;16.10;89.10;;;;;;5041645;28;20037;-60
2022/05/08 05:10:57;;;;;;;6.03;5.40;;;16.20;89.20;;;;;;5040618;28;20086;-58
2022/05/08 05:13:23;;;;;;;6.03;5.43;;;16.10;89.20;;;;;;5042749;28;20045;-60
2022/05/08 05:15:49;;;;;;;6.28;5.68;;;16.10;89.10;;;;;;5041186;28;20233;-59
2022/05/08 05:18:14;;;;;;;6.28;5.68;;;16.10;89.10;;;;;;5040304;28;20036;-59
2022/05/08 05:20:40;;;;;;;6.22;5.63;;;16.10;89.00;;;;;;5041910;28;20271;-59
2022/05/08 05:23:05;;;;;;;5.88;5.38;;;16.10;89.00;;;;;;5024582;28;21419;-60
2022/05/08 05:25:31;;;;;;;5.65;5.05;;;16.20;89.00;;;;;;5039110;28;20055;-59
2022/05/08 05:27:56;;;;;;;6.75;6.07;;;16.20;89.00;;;;;;5042115;28;20033;-59
2022/05/08 05:30:23;;;;;;;6.53;5.70;;;16.10;89.00;;;;;;5021936;28;20097;-60
2022/05/08 05:32:48;;;;;;;5.72;5.22;;;16.10;89.00;;;;;;5040626;28;20045;-60
2022/05/08 05:35:14;;;;;;;6.13;5.53;;;16.10;89.00;;;;;;5042040;28;20539;-60
2022/05/08 05:37:39;;;;;;;5.60;5.10;;;16.10;89.00;;;;;;5041409;28;20536;-60
2022/05/08 05:40:06;;;;;;;6.57;5.57;;;16.20;89.10;;;;;;5039907;28;20044;-61
2022/05/08 05:42:32;;;;;;;5.65;5.15;;;16.10;89.00;;;;;;5038740;28;20082;-60
2022/05/08 05:44:57;;;;;;;6.15;5.43;;;16.10;88.90;;;;;;5040836;28;20068;-60
2022/05/08 05:50:08;;;;;;;6.32;5.15;;;16.20;88.90;;;;;;5041291;28;20028;-61
2022/05/08 05:52:35;;;;;;;5.53;5.03;;;16.20;89.00;;;;;;5021426;28;20030;-58
2022/05/08 05:55:01;;;;;;;6.28;5.70;;;16.20;89.00;;;;;;5040975;28;20123;-60
2022/05/08 05:57:27;;;;;;;5.85;5.35;;;16.20;88.90;;;;;;5040890;28;20060;-59
2022/05/08 05:59:52;;;;;;;5.95;5.35;;;16.20;88.90;;;;;;5024619;28;20031;-61
2022/05/08 06:02:18;;;;;;;5.70;5.13;;;16.20;88.90;;;;;;5039708;28;20040;-61
2022/05/08 06:04:43;;;;;;;5.03;4.45;;;16.20;89.00;;;;;;5039673;28;20057;-61
2022/05/08 06:07:09;;;;;;;5.50;5.00;;;16.20;88.80;;;;;;5040260;28;20049;-59
2022/05/08 06:09:34;;;;;;;5.90;5.40;;;16.20;88.80;;;;;;5042833;28;20041;-60
2022/05/08 06:12:00;;;;;;;5.68;5.13;;;16.20;88.80;;;;;;5040170;28;20109;-60
2022/05/08 06:14:25;;;;;;;5.65;4.68;;;16.20;88.80;;;;;;5025298;28;20037;-59
2022/05/08 06:16:51;;;;;;;5.68;5.15;;;16.20;88.70;;;;;;5020263;28;20042;-60
2022/05/08 06:19:16;;;;;;;5.05;4.65;;;16.20;88.70;;;;;;5038976;28;20109;-59
2022/05/08 06:21:42;;;;;;;6.20;4.82;;;16.20;88.70;;;;;;5042380;28;20052;-61
2022/05/08 06:24:08;;;;;;;5.60;5.10;;;16.20;88.60;;;;;;5040468;28;20436;-58
2022/05/08 06:26:33;;;;;;;5.85;5.25;;;16.20;88.60;;;;;;5039923;28;20437;-61
2022/05/08 06:28:59;;;;;;;5.32;4.82;;;16.30;88.60;;;;;;5040060;28;20539;-61
2022/05/08 06:31:25;;;;;;;5.30;4.80;;;16.20;88.60;;;;;;5037149;28;20405;-59
2022/05/08 06:33:51;;;;;;;5.18;4.78;;;16.20;88.60;;;;;;5040334;28;20045;-59
2022/05/08 06:36:16;;;;;;;5.47;4.97;;;16.30;88.60;;;;;;5039827;28;20048;-60
2022/05/08 06:38:42;;;;;;;5.22;4.80;;;16.30;88.60;;;;;;5042532;28;20021;-59
2022/05/08 06:41:08;;;;;;;5.50;5.00;;;16.30;88.70;;;;;;5040012;28;20090;-59
2022/05/08 06:43:33;;;;;;;5.63;5.13;;;16.30;88.80;;;;;;5041777;28;20052;-61
2022/05/08 06:45:59;;;;;;;5.80;5.20;;;16.30;88.80;;;;;;5039302;28;20128;-61
2022/05/08 06:48:27;;;;;;;5.32;4.82;;;16.30;89.00;;;;;;5043280;28;20485;-61
2022/05/08 06:50:52;;;;;;;5.80;5.20;;;16.30;89.00;;;;;;5037608;28;20025;-61
2022/05/08 06:53:18;;;;;;;5.90;5.40;;;16.30;89.00;;;;;;5042133;28;20033;-59
2022/05/08 06:55:45;;;;;;;5.82;5.32;;;16.30;89.00;;;;;;5041137;28;20501;-61
2022/05/08 06:58:11;;;;;;;5.72;5.22;;;16.30;88.90;;;;;;5038546;28;20033;-59
2022/05/08 07:03:20;;;;;;;5.03;4.63;;;16.30;89.00;;;;;;5039997;28;20456;-61
2022/05/08 07:05:47;;;;;;;5.50;5.00;;;16.30;89.60;;;;;;5039735;28;20088;-59
2022/05/08 07:08:13;;;;;;;22.48;6.47;;;16.40;88.90;;;;;;5023744;28;20052;-60
2022/05/08 07:10:38;;;;;;;29.00;8.63;;;16.40;89.00;;;;;;5037376;28;20079;-63
2022/05/08 07:13:04;;;;;;;35.75;9.77;;;16.40;89.00;;;;;;5039322;28;20037;-61
2022/05/08 07:15:29;;;;;;;40.67;8.52;;;16.40;88.90;;;;;;5041541;28;20048;-59
2022/05/08 07:17:55;;;;;;;44.78;9.48;;;16.40;88.80;;;;;;5040103;28;20064;-60
2022/05/08 07:20:20;;;;;;;52.97;10.57;;;16.50;88.90;;;;;;5040642;28;20163;-61
2022/05/08 07:22:46;;;;;;;26.23;8.50;;;16.50;89.00;;;;;;5039363;28;20075;-60
2022/05/08 07:25:12;;;;;;;37.42;9.00;;;16.50;88.80;;;;;;5040788;28;20120;-62
2022/05/08 07:27:39;;;;;;;35.30;8.07;;;16.50;88.70;;;;;;5040315;28;20032;-62
2022/05/08 07:30:06;;;;;;;42.95;9.35;;;16.60;88.70;;;;;;5040161;28;20613;-61
2022/05/08 07:32:31;;;;;;;41.95;9.82;;;16.50;88.70;;;;;;5037995;28;20029;-62
2022/05/08 07:37:43;;;;;;;46.53;9.98;;;16.60;89.00;;;;;;5038854;28;20594;-60
2022/05/08 07:40:10;;;;;;;71.22;10.07;;;16.60;88.90;;;;;;5041555;28;20025;-60
2022/05/08 07:42:35;;;;;;;50.75;10.55;;;16.60;88.90;;;;;;5041609;28;20033;-60
2022/05/08 07:45:01;;;;;;;43.25;8.60;;;16.60;88.90;;;;;;5040079;28;20037;-61
2022/05/08 07:47:26;;;;;;;51.05;8.63;;;16.60;89.10;;;;;;5039667;28;20086;-60
2022/05/08 07:49:52;;;;;;;33.92;8.85;;;16.70;89.30;;;;;;5039839;28;20090;-62
2022/05/08 07:52:17;;;;;;;48.80;8.35;;;16.70;89.00;;;;;;5040186;28;20135;-61
2022/05/08 07:54:44;;;;;;;53.60;9.40;;;16.70;88.90;;;;;;5042314;28;20029;-62
2022/05/08 07:57:10;;;;;;;37.95;8.60;;;16.70;89.60;;;;;;5040160;28;20086;-60
2022/05/08 07:59:35;;;;;;;40.65;8.40;;;16.70;89.30;;;;;;5043439;28;20029;-61
2022/05/08 08:02:02;;;;;;;48.35;9.68;;;16.70;89.20;;;;;;5039570;28;20053;-60
2022/05/08 08:04:28;;;;;;;39.50;10.00;;;16.80;89.40;;;;;;5042414;28;20037;-61
2022/05/08 08:06:54;;;;;;;36.33;9.48;;;16.80;89.30;;;;;;5026960;28;20021;-60
2022/05/08 08:09:20;;;;;;;43.55;9.48;;;16.80;89.40;;;;;;5043151;28;20404;-60
2022/05/08 08:11:45;;;;;;;28.73;8.77;;;16.80;89.70;;;;;;5039964;28;20029;-60
2022/05/08 08:14:11;;;;;;;33.42;8.85;;;16.80;89.90;;;;;;5042008;28;20071;-60
2022/05/08 08:16:37;;;;;;;43.42;9.45;;;16.80;89.90;;;;;;5041251;28;20041;-60
2022/05/08 08:19:02;;;;;;;31.42;9.05;;;16.80;90.00;;;;;;5042147;28;20013;-60
2022/05/08 08:21:28;;;;;;;43.85;9.27;;;16.90;90.00;;;;;;5038686;28;20547;-61
2022/05/08 08:23:53;;;;;;;34.30;8.95;;;16.90;90.00;;;;;;5042379;28;20468;-62
2022/05/08 08:26:19;;;;;;;39.45;8.52;;;17.00;89.90;;;;;;5024866;28;20033;-62
2022/05/08 08:28:44;;;;;;;38.33;9.07;;;17.00;89.80;;;;;;5034935;28;20654;-61
2022/05/08 08:31:10;;;;;;;55.95;10.68;;;17.00;89.80;;;;;;5039019;28;20056;-60
2022/05/08 08:33:40;;;;;;;37.58;9.57;;;17.10;89.90;;;;;;5037603;28;20441;-61
2022/05/08 08:36:09;;;;;;;44.72;9.98;;;17.10;90.00;;;;;;5034774;28;20119;-60
2022/05/08 08:38:35;;;;;;;39.05;9.35;;;17.10;89.90;;;;;;5039747;28;20094;-61
2022/05/08 08:41:04;;;;;;;60.67;10.90;;;17.20;89.70;;;;;;5031951;28;20038;-60
2022/05/08 08:49:20;;;;;;;39.72;9.48;;;17.30;89.80;;;;;;5032962;28;20075;-61
2022/05/08 08:51:46;;;;;;;52.13;11.25;;;17.30;89.60;;;;;;5040180;28;20366;-60
2022/05/08 08:54:11;;;;;;;86.50;13.10;;;17.40;89.70;;;;;;5035759;28;20094;-60
2022/05/08 08:56:37;;;;;;;93.07;14.77;;;17.40;89.90;;;;;;5040060;28;20153;-62
2022/05/08 08:59:02;;;;;;;75.32;13.10;;;17.40;89.80;;;;;;5035639;28;20029;-61
2022/05/08 09:01:32;;;;;;;66.85;11.25;;;17.40;90.00;;;;;;5034875;28;20044;-62
2022/05/08 09:04:00;;;;;;;63.35;11.63;;;17.40;90.00;;;;;;5040823;28;20112;-60
2022/05/08 09:06:25;;;;;;;101.93;16.15;;;17.50;90.10;;;;;;5021143;28;20063;-60
2022/05/08 09:08:51;;;;;;;107.63;13.80;;;17.50;90.20;;;;;;5036027;28;20389;-60
2022/05/08 09:11:32;;;;;;;101.82;14.38;;;17.50;90.10;;;;;;5004379;28;20081;-59
2022/05/08 09:13:57;;;;;;;100.63;16.27;;;17.60;90.10;;;;;;5038498;28;20025;-60
2022/05/08 09:16:23;;;;;;;177.95;21.02;;;17.60;90.20;;;;;;5034476;28;20083;-61
2022/05/08 09:18:48;;;;;;;125.15;15.90;;;17.60;90.00;;;;;;5036689;28;20044;-59
2022/05/08 09:24:12;;;;;;;78.30;12.65;;;17.70;90.00;;;;;;5036775;28;20629;-61
2022/05/08 09:26:37;;;;;;;105.70;16.20;;;17.70;89.90;;;;;;5037047;28;20029;-61
2022/05/08 09:29:04;;;;;;;96.25;17.27;;;17.80;89.70;;;;;;5022039;28;20477;-61
2022/05/08 09:31:40;;;;;;;111.03;15.30;;;17.80;89.40;;;;;;5033368;28;20100;-60
2022/05/08 09:34:06;;;;;;;110.63;16.83;;;17.90;89.40;;;;;;5034907;28;20120;-60
2022/05/08 09:36:31;;;;;;;105.32;16.27;;;17.80;89.30;;;;;;5033847;28;20116;-60
2022/05/08 09:38:57;;;;;;;124.15;16.67;;;17.90;89.40;;;;;;5038567;28;20220;-60
2022/05/08 09:41:38;;;;;;;147.32;17.15;;;17.90;89.20;;;;;;5035693;28;20126;-61
2022/05/08 09:44:14;;;;;;;117.57;14.85;;;17.90;89.50;;;;;;5019746;28;20027;-61
2022/05/08 09:46:43;;;;;;;109.65;15.73;;;18.00;89.70;;;;;;5022005;28;20507;-60
2022/05/08 09:49:10;;;;;;;94.63;15.30;;;18.00;89.80;;;;;;5033843;28;20015;-60
2022/05/08 09:51:36;;;;;;;120.65;18.38;;;18.00;89.30;;;;;;5032935;28;20025;-60
2022/05/08 09:54:01;;;;;;;137.60;17.33;;;18.10;89.40;;;;;;5038506;28;20045;-62
2022/05/08 09:56:27;;;;;;;144.63;18.20;;;18.10;89.30;;;;;;5010800;28;20025;-60
2022/05/08 09:58:52;;;;;;;123.30;15.85;;;18.10;89.20;;;;;;5014805;28;20041;-61
2022/05/08 10:01:18;;;;;;;146.20;17.63;;;18.20;89.30;;;;;;5029914;28;20046;-61
2022/05/08 10:03:43;;;;;;;154.40;19.52;;;18.20;89.30;;;;;;5031432;28;20151;-59
2022/05/08 10:06:09;;;;;;;124.72;17.60;;;18.20;89.30;;;;;;4996744;28;20037;-61
2022/05/08 10:08:38;;;;;;;176.25;19.92;;;18.20;89.00;;;;;;5009461;28;20041;-61
2022/05/08 10:13:53;;;;;;;219.13;25.90;;;18.30;89.20;;;;;;5017097;28;20055;-60
2022/05/08 10:16:51;;;;;;;168.65;20.10;;;18.40;89.20;;;;;;5023795;28;20032;-60
2022/05/08 10:19:16;;;;;;;148.93;17.15;;;18.40;89.00;;;;;;5027514;28;20087;-61
2022/05/08 10:21:57;;;;;;;141.10;18.65;;;18.50;88.80;;;;;;5029982;28;20120;-62
2022/05/08 10:24:30;;;;;;;154.23;19.17;;;18.60;88.70;;;;;;5034565;28;20136;-61
2022/05/08 10:27:17;;;;;;;113.65;17.00;;;18.60;88.40;;;;;;5011139;28;20717;-62
2022/05/08 10:29:49;;;;;;;139.70;17.92;;;18.70;88.10;;;;;;5032660;28;20247;-62
2022/05/08 10:32:33;;;;;;;124.78;16.90;;;18.70;87.70;;;;;;5029259;28;20033;-61
2022/05/08 10:35:09;;;;;;;150.73;19.75;;;18.70;87.70;;;;;;5034827;28;20091;-61
2022/05/08 10:37:37;;;;;;;144.20;19.38;;;18.70;87.60;;;;;;5015227;28;20439;-61
2022/05/08 10:40:05;;;;;;;142.70;18.02;;;18.80;87.60;;;;;;5027313;28;20069;-60
2022/05/08 10:42:37;;;;;;;159.95;18.00;;;18.80;87.50;;;;;;5030339;28;20048;-60
2022/05/08 10:45:02;;;;;;;214.95;23.40;;;18.90;87.60;;;;;;5030143;28;20711;-62
2022/05/08 10:47:37;;;;;;;168.75;20.33;;;18.90;87.00;;;;;;5012727;28;20082;-59
2022/05/08 10:50:09;;;;;;;164.75;19.27;;;18.80;87.00;;;;;;5032694;28;20033;-59
2022/05/08 10:52:44;;;;;;;162.57;17.58;;;18.90;86.90;;;;;;5025591;28;20052;-62
2022/05/08 10:55:20;;;;;;;157.13;20.98;;;18.90;86.90;;;;;;5028396;28;20095;-60
2022/05/08 10:57:50;;;;;;;170.50;19.67;;;18.90;87.00;;;;;;5015595;28;20083;-62
2022/05/08 11:00:23;;;;;;;116.95;18.00;;;19.00;87.30;;;;;;5019830;28;20029;-62
2022/05/08 11:02:51;;;;;;;144.77;19.02;;;19.00;86.90;;;;;;4994812;28;20044;-62
2022/05/08 11:05:18;;;;;;;154.27;19.10;;;19.00;86.10;;;;;;5028084;28;20059;-61
2022/05/08 11:07:57;;;;;;;111.95;16.77;;;19.00;86.50;;;;;;5028760;28;20116;-66
2022/05/08 11:10:25;;;;;;;162.70;19.67;;;19.10;86.30;;;;;;5018877;28;20029;-63
2022/05/08 11:13:11;;;;;;;176.55;19.55;;;19.10;86.30;;;;;;5011428;28;20040;-61
2022/05/08 11:15:46;;;;;;;;;;;19.10;86.30;;;;;;5031542;28;20044;-63
2022/05/08 11:18:19;;;;;;;232.52;22.60;;;19.10;86.20;;;;;;5026972;28;19927;-63
2022/05/08 11:20:48;;;;;;;178.93;21.13;;;19.20;86.10;;;;;;5023824;28;20097;-61
2022/05/08 11:23:14;;;;;;;156.27;20.98;;;19.20;86.20;;;;;;5031321;28;20036;-60
2022/05/08 11:25:43;;;;;;;182.52;23.30;;;19.20;86.00;;;;;;5025479;28;20033;-59
2022/05/08 11:28:14;;;;;;;181.35;21.05;;;19.30;85.90;;;;;;5021973;28;20036;-62
2022/05/08 11:30:39;;;;;;;150.32;22.17;;;19.30;85.80;;;;;;5021746;28;20056;-63
2022/05/08 11:36:05;;;;;;;148.38;19.05;;;19.30;85.60;;;;;;5035386;28;20071;-63
2022/05/08 11:38:44;;;;;;;164.38;20.88;;;19.40;85.50;;;;;;5022270;28;20090;-62
2022/05/08 11:41:24;;;;;;;151.95;20.52;;;19.40;85.40;;;;;;5034007;28;20025;-60
2022/05/08 11:43:51;;;;;;;181.43;20.85;;;19.40;85.10;;;;;;5016216;28;20049;-59
2022/05/08 11:46:18;;;;;;;143.55;18.98;;;19.40;85.00;;;;;;5011756;28;20045;-66
2022/05/08 11:48:46;;;;;;;179.60;17.63;;;19.50;84.50;;;;;;5034394;28;20160;-61
2022/05/08 11:51:12;;;;;;;152.05;17.77;;;19.60;84.40;;;;;;5037655;28;20120;-60
2022/05/08 11:53:42;;;;;;;112.50;15.55;;;19.60;84.00;;;;;;5015869;28;20055;-60
2022/05/08 11:56:24;;;;;;;141.10;16.20;;;19.70;83.90;;;;;;5026766;28;20500;-60
2022/05/08 11:58:50;;;;;;;126.97;15.70;;;19.70;83.50;;;;;;5033981;28;20039;-61
2022/05/08 12:01:28;;;;;;;128.55;15.68;;;19.80;83.30;;;;;;5025844;28;20048;-62
2022/05/08 12:03:54;;;;;;;129.15;17.50;;;19.90;82.70;;;;;;5034690;28;20067;-61
2022/05/08 12:06:21;;;;;;;125.20;15.80;;;20.00;82.40;;;;;;5040817;28;20748;-61
2022/05/08 12:08:46;;;;;;;124.63;16.85;;;20.10;82.90;;;;;;5034812;28;20087;-61
2022/05/08 12:11:33;;;;;;;116.47;15.98;;;20.20;82.00;;;;;;5021483;28;20037;-61
2022/05/08 12:14:06;;;;;;;115.38;13.43;;;20.30;82.30;;;;;;4999600;28;20041;-60
2022/05/08 12:16:32;;;;;;;138.80;16.10;;;20.40;81.30;;;;;;5030244;28;20107;-59
2022/05/08 12:19:08;;;;;;;101.00;14.50;;;20.40;81.30;;;;;;4997488;28;20853;-60
2022/05/08 12:21:34;;;;;;;144.55;16.52;;;20.40;81.20;;;;;;5019840;28;20048;-64
2022/05/08 12:24:01;;;;;;;112.00;15.68;;;20.40;80.80;;;;;;5026274;28;20733;-65
2022/05/08 12:26:26;;;;;;;148.93;17.23;;;20.50;80.90;;;;;;5030274;28;20083;-64
2022/05/08 12:28:52;;;;;;;150.40;17.27;;;20.40;81.00;;;;;;5025993;28;20232;-62
2022/05/08 12:31:17;;;;;;;157.77;16.52;;;20.40;80.80;;;;;;5035076;28;20337;-63
2022/05/08 12:33:44;;;;;;;116.05;15.68;;;20.40;80.70;;;;;;5029198;28;20081;-64
2022/05/08 12:36:09;;;;;;;138.25;16.40;;;20.40;81.30;;;;;;5028679;28;20073;-61
2022/05/08 12:38:35;;;;;;;177.50;19.55;;;20.60;80.70;;;;;;5026664;28;20576;-63
2022/05/08 12:41:00;;;;;;;144.18;19.08;;;20.40;80.40;;;;;;5032226;28;20114;-59
2022/05/08 12:43:26;;;;;;;198.68;22.73;;;20.40;80.50;;;;;;5012714;28;20151;-60
2022/05/08 12:45:52;;;;;;;151.98;17.42;;;20.40;80.20;;;;;;5024058;28;20052;-59
2022/05/08 12:48:21;;;;;;;151.95;19.08;;;20.40;80.00;;;;;;5030833;28;20041;-60
2022/05/08 12:50:48;;;;;;;134.07;15.70;;;20.40;80.00;;;;;;5031003;28;20892;-59
2022/05/08 12:53:13;;;;;;;148.40;18.85;;;20.40;80.30;;;;;;5012015;28;20045;-62
2022/05/08 12:55:39;;;;;;;127.10;17.60;;;20.40;79.70;;;;;;5015409;28;20071;-61
2022/05/08 13:00:48;;;;;;;207.15;23.10;;;20.50;79.50;;;;;;5027260;28;20160;-60
2022/05/08 13:03:15;;;;;;;142.52;18.85;;;20.50;79.40;;;;;;5022366;28;20428;-62
2022/05/08 13:05:41;;;;;;;202.35;23.50;;;20.50;79.50;;;;;;5031044;28;20037;-60